sensor_id;sensor_type;location;lat;lon;timestamp;P1;durP1;ratioP1;P2;durP2;ratioP2
63316;SDS011;49822;41.468;13.560;2022-11-20T00:01:40;3.67;;;1.95;;
63316;SDS011;49822;41.468;13.560;2022-11-20T00:04:08;5.55;;;2.00;;
63316;SDS011;49822;41.468;13.560;2022-11-20T00:06:37;6.60;;;1.90;;
63316;SDS011;49822;41.468;13.560;2022-11-20T00:09:05;2.90;;;1.65;;
63316;SDS011;49822;41.468;13.560;2022-11-20T00:11:32;4.72;;;1.95;;
63316;SDS011;49822;41.468;13.560;2022-11-20T00:14:00;3.28;;;1.42;;
63316;SDS011;49822;41.468;13.560;2022-11-20T00:16:30;2.50;;;1.48;;
63316;SDS011;49822;41.468;13.560;2022-11-20T00:18:59;2.58;;;1.55;;
63316;SDS011;49822;41.468;13.560;2022-11-20T00:21:27;4.70;;;2.55;;
63316;SDS011;49822;41.468;13.560;2022-11-20T00:23:55;5.88;;;2.33;;
63316;SDS011;49822;41.468;13.560;2022-11-20T00:26:24;2.92;;;1.73;;
63316;SDS011;49822;41.468;13.560;2022-11-20T00:28:53;3.72;;;1.42;;
63316;SDS011;49822;41.468;13.560;2022-11-20T00:31:22;2.53;;;1.30;;
63316;SDS011;49822;41.468;13.560;2022-11-20T00:33:50;1.40;;;1.13;;
63316;SDS011;49822;41.468;13.560;2022-11-20T00:36:19;1.58;;;1.10;;
63316;SDS011;49822;41.468;13.560;2022-11-20T00:38:55;3.50;;;1.30;;
63316;SDS011;49822;41.468;13.560;2022-11-20T00:41:24;3.75;;;2.25;;
63316;SDS011;49822;41.468;13.560;2022-11-20T00:43:53;3.90;;;1.70;;
63316;SDS011;49822;41.468;13.560;2022-11-20T00:46:22;3.60;;;1.50;;
63316;SDS011;49822;41.468;13.560;2022-11-20T00:48:51;6.37;;;2.33;;
63316;SDS011;49822;41.468;13.560;2022-11-20T00:51:20;3.83;;;1.92;;
63316;SDS011;49822;41.468;13.560;2022-11-20T00:53:49;4.07;;;1.65;;
63316;SDS011;49822;41.468;13.560;2022-11-20T00:56:18;1.30;;;1.20;;
63316;SDS011;49822;41.468;13.560;2022-11-20T00:58:47;4.25;;;2.00;;
63316;SDS011;49822;41.468;13.560;2022-11-20T01:01:19;5.85;;;2.10;;
63316;SDS011;49822;41.468;13.560;2022-11-20T01:03:51;5.93;;;2.80;;
63316;SDS011;49822;41.468;13.560;2022-11-20T01:08:49;4.65;;;2.13;;
63316;SDS011;49822;41.468;13.560;2022-11-20T01:11:18;3.58;;;1.92;;
63316;SDS011;49822;41.468;13.560;2022-11-20T01:13:50;1.40;;;1.30;;
63316;SDS011;49822;41.468;13.560;2022-11-20T01:16:20;3.65;;;1.35;;
63316;SDS011;49822;41.468;13.560;2022-11-20T01:18:56;4.75;;;1.90;;
63316;SDS011;49822;41.468;13.560;2022-11-20T01:23:54;5.20;;;1.90;;
63316;SDS011;49822;41.468;13.560;2022-11-20T01:26:26;3.55;;;1.70;;
63316;SDS011;49822;41.468;13.560;2022-11-20T01:28:56;5.35;;;1.65;;
63316;SDS011;49822;41.468;13.560;2022-11-20T01:31:25;4.20;;;2.00;;
63316;SDS011;49822;41.468;13.560;2022-11-20T01:34:01;9.93;;;2.63;;
63316;SDS011;49822;41.468;13.560;2022-11-20T01:39:00;2.83;;;1.25;;
63316;SDS011;49822;41.468;13.560;2022-11-20T01:41:31;2.70;;;1.42;;
63316;SDS011;49822;41.468;13.560;2022-11-20T01:44:39;5.22;;;2.13;;
63316;SDS011;49822;41.468;13.560;2022-11-20T01:50:11;17.27;;;8.60;;
63316;SDS011;49822;41.468;13.560;2022-11-20T01:52:50;27.30;;;16.58;;
63316;SDS011;49822;41.468;13.560;2022-11-20T01:55:25;14.98;;;9.82;;
63316;SDS011;49822;41.468;13.560;2022-11-20T01:57:59;4.35;;;2.22;;
63316;SDS011;49822;41.468;13.560;2022-11-20T02:00:28;3.75;;;1.90;;
63316;SDS011;49822;41.468;13.560;2022-11-20T02:02:57;6.10;;;3.33;;
63316;SDS011;49822;41.468;13.560;2022-11-20T02:08:02;2.17;;;1.67;;
63316;SDS011;49822;41.468;13.560;2022-11-20T02:10:31;27.95;;;14.48;;
63316;SDS011;49822;41.468;13.560;2022-11-20T02:12:59;17.27;;;9.80;;
63316;SDS011;49822;41.468;13.560;2022-11-20T02:15:47;18.02;;;9.30;;
63316;SDS011;49822;41.468;13.560;2022-11-20T02:18:18;3.45;;;2.30;;
63316;SDS011;49822;41.468;13.560;2022-11-20T02:20:47;3.60;;;2.03;;
63316;SDS011;49822;41.468;13.560;2022-11-20T02:25:57;10.85;;;5.28;;
63316;SDS011;49822;41.468;13.560;2022-11-20T02:28:28;5.38;;;3.20;;
63316;SDS011;49822;41.468;13.560;2022-11-20T02:30:56;3.75;;;2.00;;
63316;SDS011;49822;41.468;13.560;2022-11-20T02:33:24;5.82;;;1.92;;
63316;SDS011;49822;41.468;13.560;2022-11-20T02:35:51;4.53;;;1.90;;
63316;SDS011;49822;41.468;13.560;2022-11-20T02:38:18;3.10;;;1.92;;
63316;SDS011;49822;41.468;13.560;2022-11-20T02:40:46;4.38;;;2.00;;
63316;SDS011;49822;41.468;13.560;2022-11-20T02:43:20;3.60;;;1.95;;
63316;SDS011;49822;41.468;13.560;2022-11-20T02:45:48;5.72;;;1.98;;
63316;SDS011;49822;41.468;13.560;2022-11-20T02:48:19;4.30;;;1.70;;
63316;SDS011;49822;41.468;13.560;2022-11-20T02:50:50;6.70;;;1.83;;
63316;SDS011;49822;41.468;13.560;2022-11-20T02:53:17;4.65;;;1.90;;
63316;SDS011;49822;41.468;13.560;2022-11-20T02:55:44;2.72;;;2.03;;
63316;SDS011;49822;41.468;13.560;2022-11-20T02:58:13;3.60;;;1.75;;
63316;SDS011;49822;41.468;13.560;2022-11-20T03:00:41;3.17;;;1.80;;
63316;SDS011;49822;41.468;13.560;2022-11-20T03:03:11;3.33;;;1.80;;
63316;SDS011;49822;41.468;13.560;2022-11-20T03:05:40;3.58;;;1.77;;
63316;SDS011;49822;41.468;13.560;2022-11-20T03:08:07;4.22;;;1.90;;
63316;SDS011;49822;41.468;13.560;2022-11-20T03:10:34;4.10;;;1.70;;
63316;SDS011;49822;41.468;13.560;2022-11-20T03:13:02;4.03;;;2.08;;
63316;SDS011;49822;41.468;13.560;2022-11-20T03:15:30;1.50;;;1.40;;
63316;SDS011;49822;41.468;13.560;2022-11-20T03:18:02;2.58;;;1.60;;
63316;SDS011;49822;41.468;13.560;2022-11-20T03:20:32;3.00;;;1.80;;
63316;SDS011;49822;41.468;13.560;2022-11-20T03:23:01;2.53;;;1.40;;
63316;SDS011;49822;41.468;13.560;2022-11-20T03:25:29;3.22;;;1.80;;
63316;SDS011;49822;41.468;13.560;2022-11-20T03:27:57;2.85;;;1.55;;
63316;SDS011;49822;41.468;13.560;2022-11-20T03:30:24;2.33;;;1.60;;
63316;SDS011;49822;41.468;13.560;2022-11-20T03:32:56;8.73;;;3.38;;
63316;SDS011;49822;41.468;13.560;2022-11-20T03:35:23;4.03;;;2.00;;
63316;SDS011;49822;41.468;13.560;2022-11-20T03:37:52;4.28;;;1.92;;
63316;SDS011;49822;41.468;13.560;2022-11-20T03:40:19;1.73;;;1.30;;
63316;SDS011;49822;41.468;13.560;2022-11-20T03:42:47;4.65;;;1.90;;
63316;SDS011;49822;41.468;13.560;2022-11-20T03:45:15;4.63;;;1.40;;
63316;SDS011;49822;41.468;13.560;2022-11-20T03:47:43;1.60;;;1.20;;
63316;SDS011;49822;41.468;13.560;2022-11-20T03:50:11;1.30;;;1.20;;
63316;SDS011;49822;41.468;13.560;2022-11-20T03:52:40;2.22;;;1.20;;
63316;SDS011;49822;41.468;13.560;2022-11-20T03:55:08;2.28;;;0.95;;
63316;SDS011;49822;41.468;13.560;2022-11-20T03:57:36;2.85;;;1.10;;
63316;SDS011;49822;41.468;13.560;2022-11-20T04:00:04;2.15;;;1.20;;
63316;SDS011;49822;41.468;13.560;2022-11-20T04:02:32;1.85;;;1.10;;
63316;SDS011;49822;41.468;13.560;2022-11-20T04:04:59;1.67;;;1.23;;
63316;SDS011;49822;41.468;13.560;2022-11-20T04:07:28;3.95;;;1.58;;
63316;SDS011;49822;41.468;13.560;2022-11-20T04:09:55;3.22;;;1.35;;
63316;SDS011;49822;41.468;13.560;2022-11-20T04:12:23;4.05;;;1.80;;
63316;SDS011;49822;41.468;13.560;2022-11-20T04:14:50;3.03;;;1.48;;
63316;SDS011;49822;41.468;13.560;2022-11-20T04:17:18;2.13;;;1.35;;
63316;SDS011;49822;41.468;13.560;2022-11-20T04:19:45;4.20;;;1.50;;
63316;SDS011;49822;41.468;13.560;2022-11-20T04:22:13;2.05;;;1.40;;
63316;SDS011;49822;41.468;13.560;2022-11-20T04:24:40;3.85;;;1.50;;
63316;SDS011;49822;41.468;13.560;2022-11-20T04:27:08;2.60;;;1.35;;
63316;SDS011;49822;41.468;13.560;2022-11-20T04:29:35;3.38;;;2.08;;
63316;SDS011;49822;41.468;13.560;2022-11-20T04:32:02;3.30;;;1.83;;
63316;SDS011;49822;41.468;13.560;2022-11-20T04:34:30;5.93;;;2.17;;
63316;SDS011;49822;41.468;13.560;2022-11-20T04:36:57;1.70;;;1.42;;
63316;SDS011;49822;41.468;13.560;2022-11-20T04:39:26;2.10;;;1.63;;
63316;SDS011;49822;41.468;13.560;2022-11-20T04:41:53;7.13;;;2.15;;
63316;SDS011;49822;41.468;13.560;2022-11-20T04:44:41;6.45;;;2.05;;
63316;SDS011;49822;41.468;13.560;2022-11-20T04:47:08;5.40;;;2.28;;
63316;SDS011;49822;41.468;13.560;2022-11-20T04:49:36;33.33;;;23.58;;
63316;SDS011;49822;41.468;13.560;2022-11-20T04:52:03;44.67;;;35.15;;
63316;SDS011;49822;41.468;13.560;2022-11-20T04:54:30;8.20;;;6.93;;
63316;SDS011;49822;41.468;13.560;2022-11-20T04:56:57;4.63;;;3.38;;
63316;SDS011;49822;41.468;13.560;2022-11-20T04:59:25;4.63;;;1.92;;
63316;SDS011;49822;41.468;13.560;2022-11-20T05:01:53;4.32;;;2.30;;
63316;SDS011;49822;41.468;13.560;2022-11-20T05:04:21;2.05;;;1.70;;
63316;SDS011;49822;41.468;13.560;2022-11-20T05:06:49;2.58;;;1.30;;
63316;SDS011;49822;41.468;13.560;2022-11-20T05:09:16;2.47;;;1.85;;
63316;SDS011;49822;41.468;13.560;2022-11-20T05:11:44;2.17;;;1.83;;
63316;SDS011;49822;41.468;13.560;2022-11-20T05:14:17;39.67;;;25.00;;
63316;SDS011;49822;41.468;13.560;2022-11-20T05:16:44;10.35;;;5.47;;
63316;SDS011;49822;41.468;13.560;2022-11-20T05:19:11;2.33;;;1.85;;
63316;SDS011;49822;41.468;13.560;2022-11-20T05:21:39;5.40;;;2.40;;
63316;SDS011;49822;41.468;13.560;2022-11-20T05:24:06;5.95;;;2.58;;
63316;SDS011;49822;41.468;13.560;2022-11-20T05:26:34;3.88;;;2.20;;
63316;SDS011;49822;41.468;13.560;2022-11-20T05:29:01;3.55;;;1.98;;
63316;SDS011;49822;41.468;13.560;2022-11-20T05:31:29;2.83;;;2.10;;
63316;SDS011;49822;41.468;13.560;2022-11-20T05:33:56;4.88;;;2.00;;
63316;SDS011;49822;41.468;13.560;2022-11-20T05:36:24;2.63;;;2.00;;
63316;SDS011;49822;41.468;13.560;2022-11-20T05:38:52;2.92;;;2.00;;
63316;SDS011;49822;41.468;13.560;2022-11-20T05:41:27;2.83;;;1.90;;
63316;SDS011;49822;41.468;13.560;2022-11-20T05:43:55;5.07;;;2.20;;
63316;SDS011;49822;41.468;13.560;2022-11-20T05:46:24;3.17;;;1.77;;
63316;SDS011;49822;41.468;13.560;2022-11-20T05:48:55;3.35;;;2.33;;
63316;SDS011;49822;41.468;13.560;2022-11-20T05:51:24;6.75;;;4.10;;
63316;SDS011;49822;41.468;13.560;2022-11-20T05:53:53;7.93;;;2.65;;
63316;SDS011;49822;41.468;13.560;2022-11-20T05:56:22;5.55;;;1.98;;
63316;SDS011;49822;41.468;13.560;2022-11-20T05:58:50;2.75;;;2.13;;
63316;SDS011;49822;41.468;13.560;2022-11-20T06:01:22;3.05;;;2.20;;
63316;SDS011;49822;41.468;13.560;2022-11-20T06:03:52;3.58;;;2.40;;
63316;SDS011;49822;41.468;13.560;2022-11-20T06:06:20;5.25;;;3.00;;
63316;SDS011;49822;41.468;13.560;2022-11-20T06:08:48;5.75;;;3.70;;
63316;SDS011;49822;41.468;13.560;2022-11-20T06:11:16;5.50;;;3.10;;
63316;SDS011;49822;41.468;13.560;2022-11-20T06:13:44;4.05;;;2.72;;
63316;SDS011;49822;41.468;13.560;2022-11-20T06:16:14;2.55;;;2.08;;
63316;SDS011;49822;41.468;13.560;2022-11-20T06:18:44;1.85;;;1.60;;
63316;SDS011;49822;41.468;13.560;2022-11-20T06:21:13;1.60;;;1.50;;
63316;SDS011;49822;41.468;13.560;2022-11-20T06:23:45;2.88;;;1.67;;
63316;SDS011;49822;41.468;13.560;2022-11-20T06:26:14;2.63;;;1.42;;
63316;SDS011;49822;41.468;13.560;2022-11-20T06:28:46;4.45;;;1.40;;
63316;SDS011;49822;41.468;13.560;2022-11-20T06:31:14;2.90;;;1.40;;
63316;SDS011;49822;41.468;13.560;2022-11-20T06:33:43;4.20;;;2.28;;
63316;SDS011;49822;41.468;13.560;2022-11-20T06:36:12;7.00;;;3.53;;
63316;SDS011;49822;41.468;13.560;2022-11-20T06:38:41;7.03;;;3.85;;
63316;SDS011;49822;41.468;13.560;2022-11-20T06:41:16;6.43;;;3.38;;
63316;SDS011;49822;41.468;13.560;2022-11-20T06:43:46;8.95;;;3.90;;
63316;SDS011;49822;41.468;13.560;2022-11-20T06:46:14;3.42;;;2.53;;
63316;SDS011;49822;41.468;13.560;2022-11-20T06:48:49;3.20;;;2.65;;
63316;SDS011;49822;41.468;13.560;2022-11-20T06:51:17;5.03;;;3.00;;
63316;SDS011;49822;41.468;13.560;2022-11-20T06:53:44;12.93;;;7.93;;
63316;SDS011;49822;41.468;13.560;2022-11-20T06:56:12;296.90;;;119.45;;
63316;SDS011;49822;41.468;13.560;2022-11-20T06:58:39;347.63;;;134.55;;
63316;SDS011;49822;41.468;13.560;2022-11-20T07:01:08;214.60;;;83.30;;
63316;SDS011;49822;41.468;13.560;2022-11-20T07:03:37;80.45;;;39.22;;
63316;SDS011;49822;41.468;13.560;2022-11-20T07:06:05;10.63;;;5.78;;
63316;SDS011;49822;41.468;13.560;2022-11-20T07:08:33;5.13;;;3.60;;
63316;SDS011;49822;41.468;13.560;2022-11-20T07:11:02;5.68;;;3.70;;
63316;SDS011;49822;41.468;13.560;2022-11-20T07:13:31;6.10;;;3.92;;
63316;SDS011;49822;41.468;13.560;2022-11-20T07:16:04;5.65;;;4.07;;
63316;SDS011;49822;41.468;13.560;2022-11-20T07:18:35;9.93;;;4.63;;
63316;SDS011;49822;41.468;13.560;2022-11-20T07:21:03;5.90;;;4.13;;
63316;SDS011;49822;41.468;13.560;2022-11-20T07:23:32;6.45;;;4.20;;
63316;SDS011;49822;41.468;13.560;2022-11-20T07:26:03;7.97;;;5.03;;
63316;SDS011;49822;41.468;13.560;2022-11-20T07:28:35;10.77;;;3.88;;
63316;SDS011;49822;41.468;13.560;2022-11-20T07:31:02;12.98;;;6.68;;
63316;SDS011;49822;41.468;13.560;2022-11-20T07:33:32;9.75;;;6.95;;
63316;SDS011;49822;41.468;13.560;2022-11-20T07:35:59;7.75;;;3.88;;
63316;SDS011;49822;41.468;13.560;2022-11-20T07:38:27;4.00;;;3.00;;
63316;SDS011;49822;41.468;13.560;2022-11-20T07:40:56;4.30;;;2.90;;
63316;SDS011;49822;41.468;13.560;2022-11-20T07:43:28;5.10;;;3.00;;
63316;SDS011;49822;41.468;13.560;2022-11-20T07:45:56;6.32;;;4.10;;
63316;SDS011;49822;41.468;13.560;2022-11-20T07:48:24;3.75;;;2.95;;
63316;SDS011;49822;41.468;13.560;2022-11-20T07:50:53;4.07;;;3.05;;
63316;SDS011;49822;41.468;13.560;2022-11-20T07:53:22;6.30;;;3.47;;
63316;SDS011;49822;41.468;13.560;2022-11-20T07:55:50;5.20;;;3.63;;
63316;SDS011;49822;41.468;13.560;2022-11-20T07:58:21;4.53;;;3.47;;
63316;SDS011;49822;41.468;13.560;2022-11-20T08:00:50;4.55;;;3.35;;
63316;SDS011;49822;41.468;13.560;2022-11-20T08:03:20;201.55;;;105.20;;
63316;SDS011;49822;41.468;13.560;2022-11-20T08:05:51;84.38;;;47.83;;
63316;SDS011;49822;41.468;13.560;2022-11-20T08:08:19;20.67;;;15.18;;
63316;SDS011;49822;41.468;13.560;2022-11-20T08:10:47;15.10;;;10.15;;
63316;SDS011;49822;41.468;13.560;2022-11-20T08:13:16;92.85;;;47.28;;
63316;SDS011;49822;41.468;13.560;2022-11-20T08:16:07;24.63;;;16.73;;
63316;SDS011;49822;41.468;13.560;2022-11-20T08:18:39;10.25;;;7.15;;
63316;SDS011;49822;41.468;13.560;2022-11-20T08:21:06;14.07;;;9.60;;
63316;SDS011;49822;41.468;13.560;2022-11-20T08:23:34;16.83;;;11.43;;
63316;SDS011;49822;41.468;13.560;2022-11-20T08:26:12;13.98;;;9.07;;
63316;SDS011;49822;41.468;13.560;2022-11-20T08:28:40;23.00;;;13.85;;
63316;SDS011;49822;41.468;13.560;2022-11-20T08:31:08;22.90;;;14.10;;
63316;SDS011;49822;41.468;13.560;2022-11-20T08:33:38;11.90;;;8.60;;
63316;SDS011;49822;41.468;13.560;2022-11-20T08:36:06;6.07;;;4.60;;
63316;SDS011;49822;41.468;13.560;2022-11-20T08:38:33;7.82;;;4.80;;
63316;SDS011;49822;41.468;13.560;2022-11-20T08:41:01;7.10;;;4.15;;
63316;SDS011;49822;41.468;13.560;2022-11-20T08:43:54;7.70;;;4.88;;
63316;SDS011;49822;41.468;13.560;2022-11-20T08:46:24;5.25;;;3.83;;
63316;SDS011;49822;41.468;13.560;2022-11-20T08:48:53;7.30;;;3.10;;
63316;SDS011;49822;41.468;13.560;2022-11-20T08:51:21;5.43;;;3.65;;
63316;SDS011;49822;41.468;13.560;2022-11-20T08:53:49;4.32;;;3.08;;
63316;SDS011;49822;41.468;13.560;2022-11-20T08:56:20;4.63;;;3.28;;
63316;SDS011;49822;41.468;13.560;2022-11-20T08:58:52;6.38;;;4.25;;
63316;SDS011;49822;41.468;13.560;2022-11-20T09:01:43;6.03;;;3.97;;
63316;SDS011;49822;41.468;13.560;2022-11-20T09:04:10;17.58;;;11.60;;
63316;SDS011;49822;41.468;13.560;2022-11-20T09:06:40;35.45;;;24.80;;
63316;SDS011;49822;41.468;13.560;2022-11-20T09:09:07;33.25;;;24.80;;
63316;SDS011;49822;41.468;13.560;2022-11-20T09:11:35;29.50;;;22.95;;
63316;SDS011;49822;41.468;13.560;2022-11-20T09:14:03;17.23;;;14.38;;
63316;SDS011;49822;41.468;13.560;2022-11-20T09:16:31;10.82;;;8.43;;
63316;SDS011;49822;41.468;13.560;2022-11-20T09:18:59;10.23;;;6.13;;
63316;SDS011;49822;41.468;13.560;2022-11-20T09:21:46;9.18;;;6.30;;
63316;SDS011;49822;41.468;13.560;2022-11-20T09:24:13;7.32;;;5.10;;
63316;SDS011;49822;41.468;13.560;2022-11-20T09:26:41;8.02;;;4.68;;
63316;SDS011;49822;41.468;13.560;2022-11-20T09:29:09;9.05;;;5.50;;
63316;SDS011;49822;41.468;13.560;2022-11-20T09:31:37;7.53;;;5.07;;
63316;SDS011;49822;41.468;13.560;2022-11-20T09:34:04;14.93;;;7.50;;
63316;SDS011;49822;41.468;13.560;2022-11-20T09:36:32;18.25;;;9.73;;
63316;SDS011;49822;41.468;13.560;2022-11-20T09:39:00;6.47;;;4.50;;
63316;SDS011;49822;41.468;13.560;2022-11-20T09:47:26;6.13;;;3.97;;
63316;SDS011;49822;41.468;13.560;2022-11-20T09:54:29;6.57;;;4.85;;
63316;SDS011;49822;41.468;13.560;2022-11-20T09:56:28;6.55;;;4.38;;
63316;SDS011;49822;41.468;13.560;2022-11-20T09:58:57;6.97;;;4.75;;
63316;SDS011;49822;41.468;13.560;2022-11-20T10:01:35;7.97;;;4.88;;
63316;SDS011;49822;41.468;13.560;2022-11-20T10:04:12;6.68;;;4.85;;
63316;SDS011;49822;41.468;13.560;2022-11-20T10:10:15;7.35;;;5.00;;
63316;SDS011;49822;41.468;13.560;2022-11-20T10:24:28;5.95;;;4.32;;
63316;SDS011;49822;41.468;13.560;2022-11-20T10:30:26;5.35;;;3.88;;
63316;SDS011;49822;41.468;13.560;2022-11-20T10:33:11;5.22;;;3.50;;
63316;SDS011;49822;41.468;13.560;2022-11-20T10:35:42;4.32;;;2.90;;
63316;SDS011;49822;41.468;13.560;2022-11-20T10:38:31;4.97;;;3.10;;
63316;SDS011;49822;41.468;13.560;2022-11-20T10:41:16;4.25;;;3.00;;
63316;SDS011;49822;41.468;13.560;2022-11-20T10:44:38;3.88;;;2.63;;
63316;SDS011;49822;41.468;13.560;2022-11-20T10:47:16;5.80;;;4.38;;
63316;SDS011;49822;41.468;13.560;2022-11-20T10:49:46;11.27;;;7.22;;
63316;SDS011;49822;41.468;13.560;2022-11-20T11:01:11;4.00;;;2.92;;
63316;SDS011;49822;41.468;13.560;2022-11-20T11:03:43;5.00;;;3.00;;
63316;SDS011;49822;41.468;13.560;2022-11-20T11:09:32;4.97;;;2.75;;
63316;SDS011;49822;41.468;13.560;2022-11-20T11:12:10;3.72;;;2.53;;
63316;SDS011;49822;41.468;13.560;2022-11-20T11:14:46;4.75;;;2.58;;
63316;SDS011;49822;41.468;13.560;2022-11-20T11:17:28;6.53;;;3.75;;
63316;SDS011;49822;41.468;13.560;2022-11-20T11:20:00;3.38;;;2.80;;
63316;SDS011;49822;41.468;13.560;2022-11-20T11:22:49;5.28;;;3.35;;
63316;SDS011;49822;41.468;13.560;2022-11-20T11:25:20;11.13;;;6.93;;
63316;SDS011;49822;41.468;13.560;2022-11-20T11:27:51;27.42;;;18.25;;
63316;SDS011;49822;41.468;13.560;2022-11-20T11:30:23;14.32;;;8.13;;
63316;SDS011;49822;41.468;13.560;2022-11-20T11:33:02;10.77;;;6.30;;
63316;SDS011;49822;41.468;13.560;2022-11-20T11:38:06;5.97;;;3.97;;
63316;SDS011;49822;41.468;13.560;2022-11-20T11:40:40;16.40;;;9.63;;
63316;SDS011;49822;41.468;13.560;2022-11-20T11:43:16;17.73;;;10.23;;
63316;SDS011;49822;41.468;13.560;2022-11-20T11:48:57;6.90;;;4.22;;
63316;SDS011;49822;41.468;13.560;2022-11-20T11:51:39;17.25;;;9.40;;
63316;SDS011;49822;41.468;13.560;2022-11-20T11:57:01;7.40;;;4.55;;
63316;SDS011;49822;41.468;13.560;2022-11-20T12:16:13;5.10;;;3.53;;
63316;SDS011;49822;41.468;13.560;2022-11-20T12:18:45;8.45;;;3.70;;
63316;SDS011;49822;41.468;13.560;2022-11-20T12:21:19;5.18;;;2.97;;
63316;SDS011;49822;41.468;13.560;2022-11-20T12:26:34;3.25;;;2.50;;
63316;SDS011;49822;41.468;13.560;2022-11-20T12:29:32;6.70;;;2.80;;
63316;SDS011;49822;41.468;13.560;2022-11-20T12:38:13;6.10;;;2.53;;
63316;SDS011;49822;41.468;13.560;2022-11-20T12:44:21;9.30;;;3.03;;
63316;SDS011;49822;41.468;13.560;2022-11-20T12:52:48;4.85;;;3.10;;
63316;SDS011;49822;41.468;13.560;2022-11-20T12:55:21;5.47;;;3.30;;
63316;SDS011;49822;41.468;13.560;2022-11-20T12:57:58;6.53;;;3.10;;
63316;SDS011;49822;41.468;13.560;2022-11-20T13:00:39;5.00;;;2.78;;
63316;SDS011;49822;41.468;13.560;2022-11-20T13:06:16;6.68;;;2.80;;
63316;SDS011;49822;41.468;13.560;2022-11-20T13:08:49;3.67;;;2.80;;
63316;SDS011;49822;41.468;13.560;2022-11-20T13:14:11;6.28;;;3.05;;
63316;SDS011;49822;41.468;13.560;2022-11-20T13:19:17;6.10;;;2.47;;
63316;SDS011;49822;41.468;13.560;2022-11-20T13:21:47;4.47;;;2.67;;
63316;SDS011;49822;41.468;13.560;2022-11-20T13:29:44;4.30;;;2.60;;
63316;SDS011;49822;41.468;13.560;2022-11-20T13:32:16;6.57;;;3.20;;
63316;SDS011;49822;41.468;13.560;2022-11-20T13:34:57;5.68;;;3.55;;
63316;SDS011;49822;41.468;13.560;2022-11-20T13:37:37;5.95;;;3.10;;
63316;SDS011;49822;41.468;13.560;2022-11-20T13:40:11;10.70;;;5.75;;
63316;SDS011;49822;41.468;13.560;2022-11-20T13:42:54;46.20;;;26.05;;
63316;SDS011;49822;41.468;13.560;2022-11-20T13:45:35;62.53;;;31.00;;
63316;SDS011;49822;41.468;13.560;2022-11-20T13:48:44;20.98;;;13.73;;
63316;SDS011;49822;41.468;13.560;2022-11-20T13:51:15;37.92;;;34.17;;
63316;SDS011;49822;41.468;13.560;2022-11-20T13:53:52;33.90;;;28.08;;
63316;SDS011;49822;41.468;13.560;2022-11-20T14:02:18;28.05;;;19.88;;
63316;SDS011;49822;41.468;13.560;2022-11-20T14:04:49;54.38;;;43.70;;
63316;SDS011;49822;41.468;13.560;2022-11-20T14:07:20;33.78;;;27.02;;
63316;SDS011;49822;41.468;13.560;2022-11-20T14:09:55;24.92;;;20.58;;
63316;SDS011;49822;41.468;13.560;2022-11-20T14:12:30;30.42;;;24.83;;
63316;SDS011;49822;41.468;13.560;2022-11-20T14:14:59;30.50;;;24.33;;
63316;SDS011;49822;41.468;13.560;2022-11-20T14:17:34;15.48;;;12.20;;
63316;SDS011;49822;41.468;13.560;2022-11-20T14:20:06;47.05;;;26.70;;
63316;SDS011;49822;41.468;13.560;2022-11-20T14:22:47;26.83;;;23.92;;
63316;SDS011;49822;41.468;13.560;2022-11-20T14:27:50;35.88;;;24.50;;
63316;SDS011;49822;41.468;13.560;2022-11-20T14:30:26;15.02;;;11.00;;
63316;SDS011;49822;41.468;13.560;2022-11-20T14:32:56;13.40;;;9.75;;
63316;SDS011;49822;41.468;13.560;2022-11-20T14:35:34;18.45;;;12.50;;
63316;SDS011;49822;41.468;13.560;2022-11-20T14:38:03;13.35;;;8.90;;
63316;SDS011;49822;41.468;13.560;2022-11-20T14:40:35;8.50;;;5.65;;
63316;SDS011;49822;41.468;13.560;2022-11-20T14:43:22;7.88;;;4.85;;
63316;SDS011;49822;41.468;13.560;2022-11-20T14:46:02;7.60;;;4.03;;
63316;SDS011;49822;41.468;13.560;2022-11-20T14:48:33;4.47;;;3.30;;
63316;SDS011;49822;41.468;13.560;2022-11-20T14:53:56;6.13;;;3.40;;
63316;SDS011;49822;41.468;13.560;2022-11-20T14:56:34;5.30;;;3.60;;
63316;SDS011;49822;41.468;13.560;2022-11-20T14:59:01;6.22;;;3.67;;
63316;SDS011;49822;41.468;13.560;2022-11-20T15:01:37;8.48;;;5.72;;
63316;SDS011;49822;41.468;13.560;2022-11-20T15:04:31;15.57;;;8.40;;
63316;SDS011;49822;41.468;13.560;2022-11-20T15:06:59;15.73;;;9.88;;
63316;SDS011;49822;41.468;13.560;2022-11-20T15:09:27;13.18;;;7.68;;
63316;SDS011;49822;41.468;13.560;2022-11-20T15:11:58;17.58;;;12.05;;
63316;SDS011;49822;41.468;13.560;2022-11-20T15:14:28;20.60;;;13.75;;
63316;SDS011;49822;41.468;13.560;2022-11-20T15:16:59;12.27;;;9.32;;
63316;SDS011;49822;41.468;13.560;2022-11-20T15:19:26;10.65;;;7.90;;
63316;SDS011;49822;41.468;13.560;2022-11-20T15:21:53;8.75;;;5.35;;
63316;SDS011;49822;41.468;13.560;2022-11-20T15:24:21;5.45;;;3.60;;
63316;SDS011;49822;41.468;13.560;2022-11-20T15:26:49;8.75;;;3.83;;
63316;SDS011;49822;41.468;13.560;2022-11-20T15:29:16;6.70;;;3.22;;
63316;SDS011;49822;41.468;13.560;2022-11-20T15:31:47;5.43;;;3.35;;
63316;SDS011;49822;41.468;13.560;2022-11-20T15:34:15;5.35;;;3.45;;
63316;SDS011;49822;41.468;13.560;2022-11-20T15:36:42;6.75;;;2.92;;
63316;SDS011;49822;41.468;13.560;2022-11-20T15:39:11;6.20;;;3.40;;
63316;SDS011;49822;41.468;13.560;2022-11-20T15:41:38;4.93;;;3.53;;
63316;SDS011;49822;41.468;13.560;2022-11-20T15:44:06;6.03;;;3.92;;
63316;SDS011;49822;41.468;13.560;2022-11-20T15:46:35;7.10;;;3.33;;
63316;SDS011;49822;41.468;13.560;2022-11-20T15:49:08;7.72;;;3.28;;
63316;SDS011;49822;41.468;13.560;2022-11-20T15:51:41;5.75;;;3.58;;
63316;SDS011;49822;41.468;13.560;2022-11-20T15:54:11;6.65;;;3.67;;
63316;SDS011;49822;41.468;13.560;2022-11-20T15:56:42;12.60;;;6.85;;
63316;SDS011;49822;41.468;13.560;2022-11-20T15:59:09;10.02;;;5.78;;
63316;SDS011;49822;41.468;13.560;2022-11-20T16:01:36;13.20;;;8.40;;
63316;SDS011;49822;41.468;13.560;2022-11-20T16:04:05;13.70;;;7.68;;
63316;SDS011;49822;41.468;13.560;2022-11-20T16:06:36;11.77;;;7.97;;
63316;SDS011;49822;41.468;13.560;2022-11-20T16:09:03;10.43;;;5.38;;
63316;SDS011;49822;41.468;13.560;2022-11-20T16:11:31;7.32;;;3.95;;
63316;SDS011;49822;41.468;13.560;2022-11-20T16:13:59;13.23;;;7.40;;
63316;SDS011;49822;41.468;13.560;2022-11-20T16:16:45;8.15;;;3.97;;
63316;SDS011;49822;41.468;13.560;2022-11-20T16:19:14;8.38;;;5.07;;
63316;SDS011;49822;41.468;13.560;2022-11-20T16:21:42;15.52;;;11.75;;
63316;SDS011;49822;41.468;13.560;2022-11-20T16:24:11;14.05;;;11.48;;
63316;SDS011;49822;41.468;13.560;2022-11-20T16:26:41;11.60;;;7.57;;
63316;SDS011;49822;41.468;13.560;2022-11-20T16:29:09;8.90;;;5.75;;
63316;SDS011;49822;41.468;13.560;2022-11-20T16:31:36;8.95;;;5.57;;
63316;SDS011;49822;41.468;13.560;2022-11-20T16:34:05;11.55;;;5.30;;
63316;SDS011;49822;41.468;13.560;2022-11-20T16:36:41;11.20;;;6.90;;
63316;SDS011;49822;41.468;13.560;2022-11-20T16:39:11;16.35;;;9.18;;
63316;SDS011;49822;41.468;13.560;2022-11-20T16:41:43;12.13;;;8.07;;
63316;SDS011;49822;41.468;13.560;2022-11-20T16:44:11;12.20;;;7.28;;
63316;SDS011;49822;41.468;13.560;2022-11-20T16:46:38;14.27;;;8.45;;
63316;SDS011;49822;41.468;13.560;2022-11-20T16:49:08;11.57;;;7.93;;
63316;SDS011;49822;41.468;13.560;2022-11-20T16:51:38;12.13;;;8.48;;
63316;SDS011;49822;41.468;13.560;2022-11-20T16:54:06;8.98;;;6.20;;
63316;SDS011;49822;41.468;13.560;2022-11-20T16:56:35;11.95;;;6.38;;